createdAt,value
2023-04-13T00:02:25.566Z,44.27
2023-04-13T00:04:58.016Z,45.35
2023-04-13T00:07:29.181Z,44.85
2023-04-13T00:10:01.552Z,44.55
2023-04-13T00:12:32.589Z,44.83
2023-04-13T00:15:03.606Z,44.15
2023-04-13T00:17:34.705Z,44.77
2023-04-13T00:20:07.034Z,44.10
2023-04-13T00:22:39.136Z,43.13
2023-04-13T00:25:12.692Z,43.35
2023-04-13T00:27:45.201Z,42.78
2023-04-13T00:30:17.740Z,42.80
2023-04-13T00:32:49.406Z,42.53
2023-04-13T00:35:23.472Z,44.53
2023-04-13T00:37:54.825Z,42.85
2023-04-13T00:40:25.824Z,42.62
2023-04-13T00:42:56.795Z,42.83
2023-04-13T00:45:28.118Z,43.05
2023-04-13T00:47:59.181Z,43.02
2023-04-13T00:50:30.232Z,43.33
2023-04-13T00:53:01.160Z,42.93
2023-04-13T00:55:32.135Z,42.98
2023-04-13T00:58:03.100Z,41.33
2023-04-13T01:00:34.095Z,41.02
2023-04-13T01:03:05.225Z,40.63
2023-04-13T01:05:38.806Z,40.67
2023-04-13T01:08:12.120Z,40.12
2023-04-13T01:11:08.557Z,40.55
2023-04-13T01:13:52.443Z,40.60
2023-04-13T01:16:25.858Z,39.75
2023-04-13T01:18:58.506Z,40.73
2023-04-13T01:21:32.045Z,39.63
2023-04-13T01:24:31.073Z,40.15
2023-04-13T01:27:16.796Z,39.80
2023-04-13T01:29:49.486Z,38.28
2023-04-13T01:32:21.249Z,37.83
2023-04-13T01:34:52.292Z,37.95
2023-04-13T01:37:23.742Z,36.75
2023-04-13T01:39:54.767Z,36.77
2023-04-13T01:42:26.363Z,36.23
2023-04-13T01:45:02.957Z,36.17
2023-04-13T01:47:35.480Z,37.03
2023-04-13T01:50:09.280Z,36.40
2023-04-13T01:52:42.203Z,36.80
2023-04-13T01:55:14.732Z,36.50
2023-04-13T01:57:49.300Z,36.03
2023-04-13T02:00:22.162Z,36.75
2023-04-13T02:02:54.779Z,35.78
2023-04-13T02:05:25.853Z,36.03
2023-04-13T02:07:56.815Z,35.08
2023-04-13T02:10:27.885Z,34.83
2023-04-13T02:12:58.959Z,34.88
2023-04-13T02:15:29.912Z,34.13
2023-04-13T02:18:01.033Z,34.10
2023-04-13T02:20:33.397Z,34.38
2023-04-13T02:23:04.403Z,33.95
2023-04-13T02:25:35.371Z,34.80
2023-04-13T02:28:06.991Z,34.13
2023-04-13T02:30:38.942Z,34.95
2023-04-13T02:33:10.715Z,34.30
2023-04-13T02:35:41.692Z,33.60
2023-04-13T02:38:12.711Z,33.65
2023-04-13T02:40:44.247Z,32.95
2023-04-13T02:43:15.218Z,32.70
2023-04-13T02:45:46.213Z,34.03
2023-04-13T02:48:17.556Z,32.15
2023-04-13T02:50:48.573Z,33.60
2023-04-13T02:53:20.340Z,31.82
2023-04-13T02:55:55.193Z,33.15
2023-04-13T02:58:26.487Z,32.50
2023-04-13T03:00:57.679Z,32.35
2023-04-13T03:03:28.678Z,31.97
2023-04-13T03:05:59.723Z,32.35
2023-04-13T03:08:30.804Z,33.30
2023-04-13T03:11:01.993Z,33.08
2023-04-13T03:13:33.000Z,33.70
2023-04-13T03:16:05.338Z,34.27
2023-04-13T03:18:36.425Z,33.88
2023-04-13T03:21:08.178Z,33.58
2023-04-13T03:23:39.126Z,31.85
2023-04-13T03:26:10.317Z,32.35
2023-04-13T03:28:41.311Z,33.15
2023-04-13T03:31:12.646Z,33.65
2023-04-13T03:33:43.684Z,33.13
2023-04-13T03:36:14.783Z,33.38
2023-04-13T03:38:45.772Z,34.30
2023-04-13T03:41:16.824Z,32.23
2023-04-13T03:43:47.790Z,32.03
2023-04-13T03:46:18.900Z,36.53
2023-04-13T03:48:49.957Z,37.13
2023-04-13T03:51:21.092Z,36.33
2023-04-13T03:53:52.157Z,35.70
2023-04-13T03:56:23.373Z,35.80
2023-04-13T03:58:54.472Z,32.95
2023-04-13T04:01:26.429Z,32.90
2023-04-13T04:03:58.721Z,33.13
2023-04-13T04:06:29.876Z,34.33
2023-04-13T04:09:00.875Z,32.80
2023-04-13T04:11:31.845Z,32.93
2023-04-13T04:14:02.870Z,32.78
2023-04-13T04:16:33.831Z,31.73
2023-04-13T04:19:04.899Z,32.75
2023-04-13T04:21:35.876Z,32.63
2023-04-13T04:24:11.685Z,34.63
2023-04-13T04:26:42.652Z,35.95
2023-04-13T04:29:14.902Z,36.77
2023-04-13T04:31:45.979Z,32.35
2023-04-13T04:34:17.809Z,32.25
2023-04-13T04:36:50.172Z,32.15
2023-04-13T04:39:24.824Z,32.48
2023-04-13T04:41:58.691Z,31.50
2023-04-13T04:44:31.053Z,32.65
2023-04-13T04:47:03.605Z,31.95
2023-04-13T04:49:35.287Z,32.38
2023-04-13T04:52:06.383Z,31.30
2023-04-13T04:54:37.358Z,31.95
2023-04-13T04:57:09.696Z,34.13
2023-04-13T04:59:41.897Z,32.83
2023-04-13T05:02:13.005Z,34.27
2023-04-13T05:04:43.986Z,34.13
2023-04-13T05:07:16.308Z,32.23
2023-04-13T05:09:47.301Z,31.95
2023-04-13T05:12:18.984Z,30.30
2023-04-13T05:14:50.536Z,36.48
2023-04-13T05:17:21.531Z,33.45
2023-04-13T05:19:52.510Z,34.48
2023-04-13T05:22:23.875Z,32.88
2023-04-13T05:24:54.859Z,32.08
2023-04-13T05:27:25.840Z,32.08
2023-04-13T05:29:59.428Z,31.75
2023-04-13T05:32:30.425Z,30.62
2023-04-13T05:35:01.516Z,30.45
2023-04-13T05:37:33.138Z,31.97
2023-04-13T05:40:05.583Z,35.10
2023-04-13T05:42:37.282Z,33.15
2023-04-13T05:45:10.438Z,30.55
2023-04-13T05:47:41.971Z,29.37
2023-04-13T05:50:14.033Z,29.70
2023-04-13T05:52:45.045Z,29.32
2023-04-13T05:55:16.085Z,31.05
2023-04-13T05:57:47.061Z,30.45
2023-04-13T06:00:20.121Z,30.90
2023-04-13T06:02:51.808Z,29.95
2023-04-13T06:05:23.502Z,31.48
2023-04-13T06:07:54.628Z,30.48
2023-04-13T06:10:25.618Z,31.80
2023-04-13T06:12:56.618Z,30.60
2023-04-13T06:15:27.675Z,30.45
2023-04-13T06:17:58.733Z,31.65
2023-04-13T06:20:29.791Z,30.85
2023-04-13T06:23:01.326Z,29.50
2023-04-13T06:25:32.512Z,29.92
2023-04-13T06:28:05.504Z,31.70
2023-04-13T06:30:36.638Z,30.68
2023-04-13T06:33:07.698Z,30.75
2023-04-13T06:35:38.712Z,30.55
2023-04-13T06:38:11.253Z,29.57
2023-04-13T06:40:42.785Z,29.90
2023-04-13T06:43:26.372Z,29.87
2023-04-13T06:45:46.105Z,29.72
2023-04-13T06:48:17.156Z,30.82
2023-04-13T06:50:48.117Z,29.80
2023-04-13T06:53:19.098Z,28.90
2023-04-13T06:55:50.072Z,30.35
2023-04-13T06:58:21.923Z,30.15
2023-04-13T07:00:52.930Z,29.70
2023-04-13T07:03:24.162Z,30.90
2023-04-13T07:05:55.686Z,29.05
2023-04-13T07:08:27.001Z,28.70
2023-04-13T07:10:59.060Z,29.60
2023-04-13T07:13:30.066Z,29.52
2023-04-13T07:16:01.109Z,28.92
2023-04-13T07:18:32.322Z,29.37
2023-04-13T07:21:03.306Z,28.40
2023-04-13T07:23:34.899Z,28.25
2023-04-13T07:26:05.859Z,29.57
2023-04-13T07:28:36.855Z,30.15
2023-04-13T07:31:09.036Z,31.40
2023-04-13T07:33:40.042Z,28.75
2023-04-13T07:36:11.618Z,29.57
2023-04-13T07:38:42.659Z,30.70
2023-04-13T07:41:13.906Z,29.82
2023-04-13T07:43:45.218Z,28.42
2023-04-13T07:46:16.251Z,31.00
2023-04-13T07:48:47.361Z,29.98
2023-04-13T07:51:21.795Z,30.85
2023-04-13T07:53:54.364Z,29.12
2023-04-13T07:56:25.401Z,32.08
2023-04-13T07:58:56.352Z,30.27
2023-04-13T08:01:27.462Z,31.33
2023-04-13T08:03:58.658Z,31.17
2023-04-13T08:06:29.751Z,29.85
2023-04-13T08:09:00.886Z,30.23
2023-04-13T08:11:32.432Z,29.45
2023-04-13T08:14:03.441Z,30.85
2023-04-13T08:16:35.671Z,30.72
2023-04-13T08:19:14.582Z,29.67
2023-04-13T08:21:45.523Z,31.12
2023-04-13T08:24:16.513Z,29.40
2023-04-13T08:26:47.505Z,29.82
2023-04-13T08:29:18.683Z,29.82
2023-04-13T08:31:50.006Z,29.72
2023-04-13T08:34:21.455Z,30.12
2023-04-13T08:36:52.507Z,31.20
2023-04-13T08:39:24.064Z,29.90
2023-04-13T08:41:55.129Z,30.15
2023-04-13T08:44:27.152Z,29.30
2023-04-13T08:46:58.556Z,29.75
2023-04-13T08:49:30.392Z,30.52
2023-04-13T08:52:05.062Z,30.77
2023-04-13T08:54:36.536Z,31.00
2023-04-13T08:57:08.841Z,30.57
2023-04-13T08:59:42.910Z,30.70
2023-04-13T09:02:15.570Z,32.40
2023-04-13T09:04:48.823Z,30.77
2023-04-13T09:07:33.793Z,30.85
2023-04-13T09:10:18.476Z,29.52
2023-04-13T09:12:53.097Z,30.88
2023-04-13T09:15:25.375Z,31.48
2023-04-13T09:17:56.960Z,31.48
2023-04-13T09:20:27.952Z,31.90
2023-04-13T09:22:58.911Z,30.40
2023-04-13T09:25:31.269Z,30.68
2023-04-13T09:28:12.349Z,30.15
2023-04-13T09:30:43.394Z,30.05
2023-04-13T09:33:15.465Z,31.05
2023-04-13T09:35:46.621Z,30.15
2023-04-13T09:38:18.769Z,30.77
2023-04-13T09:41:17.264Z,32.00
2023-04-13T09:43:48.255Z,31.70
2023-04-13T09:46:23.891Z,33.08
2023-04-13T09:49:07.944Z,32.35
2023-04-13T09:51:43.696Z,31.40
2023-04-13T09:54:14.737Z,33.13
2023-04-13T09:56:48.264Z,33.13
2023-04-13T09:59:20.501Z,32.53
2023-04-13T10:01:53.588Z,32.85
2023-04-13T10:04:25.484Z,32.10
2023-04-13T10:06:56.712Z,31.93
2023-04-13T10:09:28.352Z,32.17
2023-04-13T10:12:01.298Z,32.23
2023-04-13T10:14:34.654Z,32.55
2023-04-13T10:17:26.141Z,32.78
2023-04-13T10:19:59.501Z,32.03
2023-04-13T10:22:34.956Z,31.52
2023-04-13T10:25:09.560Z,30.62
2023-04-13T10:27:40.707Z,32.13
2023-04-13T10:30:20.514Z,31.07
2023-04-13T10:32:55.234Z,32.45
2023-04-13T10:35:27.222Z,32.28
2023-04-13T10:38:04.386Z,32.23
2023-04-13T10:40:49.250Z,32.05
2023-04-13T10:43:33.883Z,33.85
2023-04-13T10:46:15.011Z,31.20
2023-04-13T10:48:47.463Z,30.17
2023-04-13T10:51:19.021Z,33.53
2023-04-13T10:53:50.302Z,31.87
2023-04-13T10:56:21.477Z,31.75
2023-04-13T10:58:55.802Z,32.60
2023-04-13T11:01:27.603Z,31.30
2023-04-13T11:04:05.226Z,31.52
2023-04-13T11:06:32.911Z,31.62
2023-04-13T11:09:07.084Z,33.02
2023-04-13T11:11:40.821Z,32.63
2023-04-13T11:14:13.273Z,31.80
2023-04-13T11:16:48.076Z,31.70
2023-04-13T11:19:20.099Z,30.60
2023-04-13T11:22:13.255Z,31.33
2023-04-13T11:24:43.900Z,30.45
2023-04-13T11:27:26.521Z,30.37
2023-04-13T11:30:06.759Z,30.62
2023-04-13T11:32:39.412Z,29.90
2023-04-13T11:35:11.430Z,30.50
2023-04-13T11:37:46.933Z,29.98
2023-04-13T11:40:24.269Z,31.52
2023-04-13T11:42:59.843Z,31.05
2023-04-13T11:45:32.432Z,31.07
2023-04-13T11:48:05.617Z,30.72
2023-04-13T11:50:36.718Z,29.40
2023-04-13T11:53:10.611Z,30.27
2023-04-13T11:55:52.755Z,30.25
2023-04-13T11:58:20.143Z,32.23
2023-04-13T12:00:51.799Z,30.10
2023-04-13T12:03:38.304Z,31.17
2023-04-13T12:05:58.283Z,29.82
2023-04-13T12:08:31.889Z,31.52
2023-04-13T12:11:36.768Z,30.95
2023-04-13T12:13:52.463Z,30.88
2023-04-13T12:17:00.338Z,30.15
2023-04-13T12:19:10.682Z,31.40
2023-04-13T12:21:44.782Z,29.85
2023-04-13T12:24:16.287Z,30.92
2023-04-13T12:29:19.875Z,31.05
2023-04-13T12:31:50.971Z,29.87
2023-04-13T12:34:23.399Z,31.30
2023-04-13T12:36:54.411Z,30.15
2023-04-13T12:39:25.374Z,31.17
2023-04-13T12:41:56.328Z,29.65
2023-04-13T12:44:27.330Z,29.70
2023-04-13T12:46:58.321Z,29.90
2023-04-13T12:49:29.242Z,29.75
2023-04-13T12:52:00.205Z,30.60
2023-04-13T12:54:31.901Z,29.42
2023-04-13T12:57:02.885Z,29.12
2023-04-13T12:59:33.899Z,30.60
2023-04-13T13:02:04.924Z,30.45
2023-04-13T13:04:36.010Z,29.82
2023-04-13T13:07:06.969Z,31.02
2023-04-13T13:09:38.457Z,29.67
2023-04-13T13:12:10.609Z,28.95
2023-04-13T13:14:41.579Z,30.15
2023-04-13T13:17:12.686Z,31.10
2023-04-13T13:19:43.723Z,30.20
2023-04-13T13:22:14.679Z,29.65
2023-04-13T13:24:45.667Z,30.12
2023-04-13T13:27:53.985Z,30.27
2023-04-13T13:29:49.462Z,29.50
2023-04-13T13:32:20.531Z,29.18
2023-04-13T13:34:51.776Z,29.35
2023-04-13T13:37:22.728Z,30.27
2023-04-13T13:39:53.709Z,30.60
2023-04-13T13:42:24.801Z,29.85
2023-04-13T13:44:55.792Z,29.10
2023-04-13T13:47:26.873Z,28.87
2023-04-13T13:49:57.908Z,29.20
2023-04-13T13:52:28.896Z,29.55
2023-04-13T13:54:59.875Z,30.35
2023-04-13T13:57:31.109Z,29.45
2023-04-13T14:00:02.051Z,29.98
2023-04-13T14:02:33.198Z,30.85
2023-04-13T14:05:04.208Z,30.72
2023-04-13T14:07:35.171Z,29.95
2023-04-13T14:10:06.298Z,29.35
2023-04-13T14:12:37.278Z,29.10
2023-04-13T14:15:10.331Z,31.25
2023-04-13T14:17:41.889Z,30.27
2023-04-13T14:20:16.677Z,31.12
2023-04-13T14:22:47.693Z,30.17
2023-04-13T14:25:18.768Z,29.82
2023-04-13T14:27:49.776Z,31.73
2023-04-13T14:30:21.005Z,29.82
2023-04-13T14:32:53.055Z,30.45
2023-04-13T14:35:27.107Z,28.95
2023-04-13T14:37:58.086Z,29.70
2023-04-13T14:40:29.525Z,29.52
2023-04-13T14:43:00.580Z,30.62
2023-04-13T14:45:31.564Z,29.55
2023-04-13T14:48:02.670Z,30.52
2023-04-13T14:50:35.206Z,31.15
2023-04-13T14:53:07.570Z,29.65
2023-04-13T14:55:38.605Z,30.48
2023-04-13T14:58:09.615Z,30.40
2023-04-13T15:00:41.447Z,31.25
2023-04-13T15:03:14.106Z,29.75
2023-04-13T15:05:49.680Z,30.55
2023-04-13T15:08:21.015Z,31.60
2023-04-13T15:10:51.993Z,29.82
2023-04-13T15:13:22.951Z,30.68
2023-04-13T15:15:53.938Z,29.90
2023-04-13T15:18:24.889Z,32.50
2023-04-13T15:20:56.190Z,31.30
2023-04-13T15:23:27.151Z,32.23
2023-04-13T15:25:58.237Z,31.85
2023-04-13T15:28:29.223Z,31.05
2023-04-13T15:31:00.199Z,30.82
2023-04-13T15:33:31.163Z,30.65
2023-04-13T15:36:02.154Z,29.85
2023-04-13T15:38:33.133Z,30.37
2023-04-13T15:41:04.327Z,31.42
2023-04-13T15:43:35.370Z,32.13
2023-04-13T15:46:06.591Z,30.68
2023-04-13T15:48:37.623Z,30.92
2023-04-13T15:51:09.110Z,33.18
2023-04-13T15:53:40.094Z,30.97
2023-04-13T15:56:11.569Z,31.25
2023-04-13T15:58:42.589Z,30.90
2023-04-13T16:01:14.791Z,31.68
2023-04-13T16:03:47.158Z,31.65
2023-04-13T16:06:18.418Z,31.35
2023-04-13T16:08:49.379Z,31.42
2023-04-13T16:11:21.740Z,31.23
2023-04-13T16:13:54.075Z,32.20
2023-04-13T16:16:25.420Z,32.08
2023-04-13T16:18:56.539Z,31.15
2023-04-13T16:21:27.496Z,31.90
2023-04-13T16:23:58.714Z,31.52
2023-04-13T16:26:29.745Z,31.25
2023-04-13T16:29:00.902Z,31.85
2023-04-13T16:31:32.204Z,32.40
2023-04-13T16:34:11.721Z,32.38
2023-04-13T16:36:35.518Z,32.90
2023-04-13T16:39:13.042Z,32.20
2023-04-13T16:41:44.130Z,32.23
2023-04-13T16:44:15.224Z,32.75
2023-04-13T16:46:46.247Z,31.65
2023-04-13T16:49:17.479Z,33.33
2023-04-13T16:51:49.586Z,31.57
2023-04-13T16:54:22.298Z,32.38
2023-04-13T16:56:53.901Z,31.80
2023-04-13T16:59:24.842Z,32.50
2023-04-13T17:01:55.887Z,31.02
2023-04-13T17:04:26.952Z,32.85
2023-04-13T17:07:05.547Z,32.40
2023-04-13T17:09:36.589Z,32.20
2023-04-13T17:12:07.612Z,33.10
2023-04-13T17:14:38.584Z,33.73
2023-04-13T17:17:09.672Z,33.25
2023-04-13T17:19:40.625Z,32.95
2023-04-13T17:22:11.604Z,31.62
2023-04-13T17:24:42.581Z,31.37
2023-04-13T17:27:13.545Z,32.63
2023-04-13T17:29:44.534Z,34.53
2023-04-13T17:32:15.574Z,33.02
2023-04-13T17:34:46.589Z,32.48
2023-04-13T17:37:18.070Z,31.70
2023-04-13T17:39:50.647Z,33.38
2023-04-13T17:42:22.983Z,32.83
2023-04-13T17:44:56.272Z,32.67
2023-04-13T17:47:27.304Z,33.28
2023-04-13T17:49:58.588Z,33.63
2023-04-13T17:52:33.149Z,33.63
2023-04-13T17:55:05.552Z,33.15
2023-04-13T17:57:36.703Z,33.48
2023-04-13T18:00:08.325Z,33.48
2023-04-13T18:02:40.504Z,33.38
2023-04-13T18:05:13.493Z,32.10
2023-04-13T18:07:44.773Z,32.58
2023-04-13T18:10:16.051Z,32.10
2023-04-13T18:12:47.124Z,33.38
2023-04-13T18:15:18.199Z,32.60
2023-04-13T18:17:49.271Z,32.05
2023-04-13T18:20:20.267Z,32.60
2023-04-13T18:22:51.230Z,32.80
2023-04-13T18:25:22.210Z,32.53
2023-04-13T18:27:54.105Z,33.10
2023-04-13T18:30:25.285Z,32.85
2023-04-13T18:32:56.303Z,32.67
2023-04-13T18:35:27.330Z,33.23
2023-04-13T18:37:59.180Z,32.25
2023-04-13T18:40:30.140Z,33.53
2023-04-13T18:43:02.499Z,31.90
2023-04-13T18:45:33.707Z,33.02
2023-04-13T18:48:05.189Z,32.60
2023-04-13T18:50:36.318Z,33.18
2023-04-13T18:53:07.274Z,33.60
2023-04-13T18:55:38.232Z,33.67
2023-04-13T18:58:09.239Z,33.25
2023-04-13T19:00:40.192Z,33.78
2023-04-13T19:03:11.394Z,33.45
2023-04-13T19:05:42.686Z,33.63
2023-04-13T19:08:14.464Z,32.60
2023-04-13T19:10:46.403Z,33.98
2023-04-13T19:13:18.063Z,33.45
2023-04-13T19:15:49.027Z,34.13
2023-04-13T19:18:20.032Z,33.85
2023-04-13T19:20:50.988Z,32.65
2023-04-13T19:23:22.212Z,33.02
2023-04-13T19:25:54.290Z,32.25
2023-04-13T19:28:26.135Z,33.28
2023-04-13T19:30:57.107Z,32.83
2023-04-13T19:33:28.058Z,33.00
2023-04-13T19:35:59.573Z,33.67
2023-04-13T19:38:31.240Z,33.63
2023-04-13T19:41:02.193Z,33.08
2023-04-13T19:43:33.732Z,33.42
2023-04-13T19:46:04.692Z,32.78
2023-04-13T19:48:35.694Z,33.85
2023-04-13T19:51:06.646Z,34.40
2023-04-13T19:53:38.377Z,32.83
2023-04-13T19:56:09.667Z,34.88
2023-04-13T19:58:40.628Z,35.10
2023-04-13T20:01:13.096Z,34.80
2023-04-13T20:03:45.378Z,34.65
2023-04-13T20:06:17.043Z,34.65
2023-04-13T20:08:48.869Z,35.55
2023-04-13T20:11:19.823Z,34.63
2023-04-13T20:13:50.792Z,35.73
2023-04-13T20:16:22.600Z,34.88
2023-04-13T20:18:53.659Z,35.35
2023-04-13T20:21:24.697Z,35.38
2023-04-13T20:23:55.654Z,34.65
2023-04-13T20:26:28.302Z,34.27
2023-04-13T20:29:00.101Z,34.88
2023-04-13T20:31:32.636Z,35.38
2023-04-13T20:34:04.493Z,35.08
2023-04-13T20:36:35.430Z,35.92
2023-04-13T20:39:07.070Z,35.40
2023-04-13T20:41:38.344Z,36.17
2023-04-13T20:44:10.966Z,36.93
2023-04-13T20:46:42.939Z,35.38
2023-04-13T20:49:14.648Z,35.98
2023-04-13T20:51:45.608Z,35.60
2023-04-13T20:54:17.097Z,35.95
2023-04-13T20:56:49.468Z,35.50
2023-04-13T20:59:20.462Z,36.08
2023-04-13T21:01:52.288Z,35.40
2023-04-13T21:04:23.348Z,36.45
2023-04-13T21:06:55.008Z,36.63
2023-04-13T21:09:25.999Z,36.68
2023-04-13T21:11:57.962Z,35.63
2023-04-13T21:14:29.065Z,36.60
2023-04-13T21:17:00.119Z,37.50
2023-04-13T21:19:31.664Z,37.30
2023-04-13T21:22:02.611Z,36.20
2023-04-13T21:24:33.605Z,35.50
2023-04-13T21:27:04.669Z,35.90
2023-04-13T21:29:35.720Z,35.43
2023-04-13T21:32:06.745Z,38.30
2023-04-13T21:34:37.787Z,35.55
2023-04-13T21:37:08.998Z,36.55
2023-04-13T21:39:40.077Z,36.20
2023-04-13T21:42:11.030Z,36.88
2023-04-13T21:44:42.007Z,36.90
2023-04-13T21:47:12.995Z,38.20
2023-04-13T21:49:44.274Z,36.13
2023-04-13T21:52:15.233Z,37.00
2023-04-13T21:54:46.292Z,38.05
2023-04-13T21:57:17.231Z,36.70
2023-04-13T21:59:48.768Z,36.40
2023-04-13T22:02:19.887Z,38.02
2023-04-13T22:04:50.975Z,36.98
2023-04-13T22:07:31.511Z,37.03
2023-04-13T22:09:54.232Z,36.63
2023-04-13T22:12:25.200Z,37.78
2023-04-13T22:14:59.299Z,38.17
2023-04-13T22:17:30.390Z,38.30
2023-04-13T22:20:02.125Z,38.60
2023-04-13T22:22:33.554Z,37.33
2023-04-13T22:25:04.548Z,36.23
2023-04-13T22:27:35.538Z,37.28
2023-04-13T22:30:07.091Z,38.05
2023-04-13T22:32:38.619Z,38.50
2023-04-13T22:35:10.550Z,37.33
2023-04-13T22:37:41.618Z,37.63
2023-04-13T22:40:13.328Z,36.85
2023-04-13T22:42:44.321Z,38.38
2023-04-13T22:45:15.461Z,37.88
2023-04-13T22:47:46.544Z,39.00
2023-04-13T22:50:17.596Z,37.05
2023-04-13T22:52:48.915Z,37.63
2023-04-13T22:55:19.989Z,38.08
2023-04-13T22:57:50.952Z,39.67
2023-04-13T23:00:22.145Z,39.15
2023-04-13T23:02:54.664Z,38.95
2023-04-13T23:05:26.178Z,39.18
2023-04-13T23:07:57.169Z,39.03
2023-04-13T23:10:28.550Z,38.73
2023-04-13T23:13:00.009Z,38.20
2023-04-13T23:15:31.320Z,38.80
2023-04-13T23:18:04.635Z,40.05
2023-04-13T23:20:35.817Z,38.33
2023-04-13T23:23:06.775Z,38.55
2023-04-13T23:25:38.174Z,39.40
2023-04-13T23:28:09.148Z,39.00
2023-04-13T23:30:40.148Z,39.08
2023-04-13T23:33:11.128Z,40.95
2023-04-13T23:35:42.267Z,39.18
2023-04-13T23:38:13.265Z,39.58
2023-04-13T23:40:44.434Z,39.95
2023-04-13T23:43:15.402Z,40.83
2023-04-13T23:45:46.456Z,38.33
2023-04-13T23:48:17.456Z,40.00
2023-04-13T23:50:48.632Z,40.38
2023-04-13T23:53:22.612Z,40.10
2023-04-13T23:55:53.739Z,39.58
2023-04-13T23:58:43.739Z,40.58
